Time;durP1;ratioP1;P1;durP2;ratioP2;P2;SDS_P1;SDS_P2;PMS_P1;PMS_P2;Temp;Humidity;BMP_temperature;BMP_pressure;BME280_temperature;BME280_humidity;BME280_pressure;Samples;Min_cycle;Max_cycle;Signal;HPM_P1;HPM_P2
2023/12/30 00:01:47;;;;;;;4.05;1.20;;;7.00;99.90;;;;;;4937783;29;20047;-75
2023/12/30 00:04:13;;;;;;;9.32;1.52;;;7.00;99.90;;;;;;4955116;28;20122;-76
2023/12/30 00:06:39;;;;;;;7.25;1.65;;;7.00;99.90;;;;;;4954602;28;20139;-76
2023/12/30 00:09:05;;;;;;;8.77;1.48;;;7.00;99.90;;;;;;4954559;28;20502;-76
2023/12/30 00:11:31;;;;;;;7.65;1.20;;;7.00;99.90;;;;;;4953207;28;20044;-76
2023/12/30 00:13:57;;;;;;;9.00;1.27;;;7.00;99.90;;;;;;4954623;28;20039;-76
2023/12/30 00:16:22;;;;;;;4.93;1.13;;;7.00;99.90;;;;;;4953323;28;20090;-75
2023/12/30 00:18:48;;;;;;;5.57;1.50;;;6.90;99.90;;;;;;4958244;28;20126;-75
2023/12/30 00:21:21;;;;;;;11.68;1.77;;;6.90;99.90;;;;;;4956516;28;20510;-76
2023/12/30 00:23:47;;;;;;;8.85;1.42;;;6.90;99.90;;;;;;4956715;29;20086;-75
2023/12/30 00:26:20;;;;;;;6.00;0.80;;;6.80;99.90;;;;;;4957597;29;20357;-76
2023/12/30 00:28:46;;;;;;;6.65;1.10;;;6.80;99.90;;;;;;4956918;29;20398;-76
2023/12/30 00:51:55;;;;;;;4.30;1.20;;;6.70;99.90;;;;;;5576756;23;20057;-75
2023/12/30 00:54:21;;;;;;;5.35;1.17;;;6.70;99.90;;;;;;4959771;28;20034;-76
2023/12/30 00:56:46;;;;;;;9.25;1.30;;;6.70;99.90;;;;;;4975269;28;20070;-74
2023/12/30 00:59:12;;;;;;;6.32;1.25;;;6.60;99.90;;;;;;4976847;28;20034;-75
2023/12/30 01:01:38;;;;;;;5.25;1.30;;;6.60;99.90;;;;;;4975223;28;20053;-75
2023/12/30 01:04:04;;;;;;;4.50;1.40;;;6.60;99.90;;;;;;4976808;28;20046;-76
2023/12/30 01:06:30;;;;;;;9.52;1.48;;;6.60;99.90;;;;;;4975342;28;20047;-78
2023/12/30 01:08:56;;;;;;;7.18;1.48;;;6.60;99.90;;;;;;4975232;28;20051;-75
2023/12/30 01:11:21;;;;;;;4.57;1.20;;;6.60;99.90;;;;;;4974977;28;20035;-75
2023/12/30 01:13:47;;;;;;;7.13;1.20;;;6.60;99.90;;;;;;4976637;28;20038;-74
2023/12/30 01:16:12;;;;;;;7.22;1.35;;;6.50;99.90;;;;;;4975141;28;20050;-75
2023/12/30 01:18:39;;;;;;;3.28;0.70;;;6.50;99.90;;;;;;4976440;28;20034;-74
2023/12/30 01:21:05;;;;;;;5.22;0.88;;;6.50;99.90;;;;;;4975255;28;20478;-75
2023/12/30 01:23:30;;;;;;;8.45;1.33;;;6.50;99.90;;;;;;4974935;28;20056;-75
2023/12/30 01:25:56;;;;;;;11.90;1.40;;;6.50;99.90;;;;;;4974892;28;20051;-77
2023/12/30 01:28:22;;;;;;;5.38;0.90;;;6.50;99.90;;;;;;4974630;28;20049;-76
2023/12/30 01:30:47;;;;;;;8.93;1.77;;;6.50;99.90;;;;;;4976798;28;20038;-76
2023/12/30 01:33:13;;;;;;;7.78;1.10;;;6.40;99.90;;;;;;4974814;28;20501;-76
2023/12/30 01:35:38;;;;;;;7.38;1.83;;;6.50;99.90;;;;;;4974892;28;20038;-76
2023/12/30 01:38:04;;;;;;;13.30;1.58;;;6.40;99.90;;;;;;4974715;28;20474;-75
2023/12/30 01:40:30;;;;;;;4.90;1.23;;;6.40;99.90;;;;;;4975445;28;20082;-75
2023/12/30 01:42:56;;;;;;;8.00;1.00;;;6.40;99.90;;;;;;4974489;28;20047;-74
2023/12/30 01:45:21;;;;;;;7.57;1.58;;;6.40;99.90;;;;;;4976008;28;20058;-74
2023/12/30 01:47:47;;;;;;;8.88;1.38;;;6.40;99.90;;;;;;4975646;28;20050;-74
2023/12/30 01:50:12;;;;;;;8.77;1.23;;;6.40;99.90;;;;;;4958464;28;20117;-75
2023/12/30 01:52:38;;;;;;;8.13;1.23;;;6.40;99.90;;;;;;4974150;28;20106;-74
2023/12/30 01:55:07;;;;;;;6.57;1.20;;;6.40;99.90;;;;;;4975664;28;20474;-75
2023/12/30 01:57:33;;;;;;;9.13;1.15;;;6.40;99.90;;;;;;4975806;28;20047;-75
2023/12/30 02:00:01;;;;;;;8.82;1.08;;;6.50;99.90;;;;;;4975548;28;20050;-76
2023/12/30 02:02:28;;;;;;;8.13;1.38;;;6.50;99.90;;;;;;4974401;28;20408;-74
2023/12/30 02:04:54;;;;;;;9.35;1.20;;;6.50;99.90;;;;;;4974454;28;20368;-75
2023/12/30 02:07:20;;;;;;;10.88;1.60;;;6.60;99.90;;;;;;4974030;28;20043;-76
2023/12/30 02:09:46;;;;;;;6.00;1.20;;;6.60;99.90;;;;;;4975169;28;20089;-76
2023/12/30 02:12:11;;;;;;;5.43;1.08;;;6.60;99.90;;;;;;4975513;28;20038;-75
2023/12/30 02:14:37;;;;;;;10.23;1.67;;;6.60;99.90;;;;;;4975455;28;20045;-74
2023/12/30 02:17:03;;;;;;;6.90;1.20;;;6.60;99.90;;;;;;4974351;28;20038;-76
2023/12/30 02:19:28;;;;;;;8.15;1.20;;;6.70;99.90;;;;;;4975418;28;20066;-75
2023/12/30 02:21:54;;;;;;;12.10;1.48;;;6.70;99.90;;;;;;4973810;28;20457;-76
2023/12/30 02:24:20;;;;;;;12.02;1.20;;;6.70;99.90;;;;;;4975368;28;20063;-75
2023/12/30 02:26:46;;;;;;;6.45;0.98;;;6.60;99.90;;;;;;4973729;28;20097;-76
2023/12/30 02:29:12;;;;;;;8.18;1.70;;;6.60;99.90;;;;;;4975015;28;20043;-74
2023/12/30 02:31:49;;;;;;;11.00;1.23;;;6.50;99.90;;;;;;4973640;28;20049;-75
2023/12/30 02:34:17;;;;;;;8.88;1.27;;;6.50;99.90;;;;;;4974046;28;20078;-74
2023/12/30 02:36:44;;;;;;;7.72;1.38;;;6.50;99.90;;;;;;4975402;28;20402;-76
2023/12/30 02:39:10;;;;;;;7.07;1.00;;;6.50;99.90;;;;;;4974937;28;20046;-76
2023/12/30 02:41:35;;;;;;;8.18;1.63;;;6.50;99.90;;;;;;4974434;28;20394;-75
2023/12/30 02:44:02;;;;;;;7.38;1.33;;;6.50;99.90;;;;;;4973661;28;20047;-75
2023/12/30 02:46:28;;;;;;;15.75;1.85;;;6.60;99.90;;;;;;4973430;28;20047;-76
2023/12/30 02:48:53;;;;;;;12.50;1.63;;;6.60;99.90;;;;;;4973523;28;20065;-75
2023/12/30 02:51:19;;;;;;;11.35;1.73;;;6.60;99.90;;;;;;4973609;28;20041;-75
2023/12/30 02:53:45;;;;;;;10.68;1.13;;;6.70;99.90;;;;;;4973536;28;20482;-75
2023/12/30 02:56:22;;;;;;;8.45;1.10;;;6.60;99.90;;;;;;4974937;28;20049;-75
2023/12/30 02:58:56;;;;;;;13.23;1.63;;;6.70;99.90;;;;;;4974926;28;20049;-76
2023/12/30 03:01:25;;;;;;;8.02;1.17;;;6.70;99.90;;;;;;4957236;28;20038;-74
2023/12/30 03:03:56;;;;;;;10.43;1.55;;;6.60;99.90;;;;;;4973196;28;20050;-75
2023/12/30 03:06:23;;;;;;;7.10;1.40;;;6.60;99.90;;;;;;4974726;28;20129;-76
2023/12/30 03:08:49;;;;;;;10.48;2.17;;;6.70;99.90;;;;;;4973268;28;20042;-76
2023/12/30 03:11:15;;;;;;;12.32;1.30;;;6.70;99.90;;;;;;4974632;28;20081;-75
2023/12/30 03:13:41;;;;;;;14.30;1.30;;;6.70;99.90;;;;;;4974665;28;20046;-75
2023/12/30 03:16:07;;;;;;;8.27;1.85;;;6.60;99.90;;;;;;4973145;28;20042;-75
2023/12/30 03:18:33;;;;;;;6.22;1.40;;;6.60;99.90;;;;;;4973148;28;20081;-75
2023/12/30 03:20:59;;;;;;;7.85;1.65;;;6.60;99.90;;;;;;4974513;28;20050;-76
2023/12/30 03:23:24;;;;;;;8.00;1.27;;;6.70;99.90;;;;;;4974206;28;20113;-74
2023/12/30 03:25:51;;;;;;;9.73;1.83;;;6.70;99.90;;;;;;4973358;28;20484;-74
2023/12/30 03:28:17;;;;;;;9.57;1.48;;;6.60;99.90;;;;;;4972900;28;20050;-74
2023/12/30 03:30:43;;;;;;;8.88;2.05;;;6.70;99.90;;;;;;4973213;28;20117;-74
2023/12/30 03:33:08;;;;;;;10.43;1.60;;;6.60;99.90;;;;;;4974355;28;20118;-74
2023/12/30 03:35:35;;;;;;;12.85;1.35;;;6.60;99.90;;;;;;4974452;28;20067;-75
2023/12/30 03:38:01;;;;;;;9.82;1.60;;;6.60;99.90;;;;;;4974366;28;20089;-74
2023/12/30 03:40:26;;;;;;;9.18;1.33;;;6.60;99.90;;;;;;4972882;28;20042;-75
2023/12/30 03:42:52;;;;;;;11.57;1.50;;;6.60;99.90;;;;;;4972802;28;20499;-75
2023/12/30 03:45:18;;;;;;;11.20;1.60;;;6.50;99.90;;;;;;4974424;28;20038;-74
2023/12/30 03:47:43;;;;;;;11.93;1.50;;;6.50;99.90;;;;;;4974034;28;20039;-76
2023/12/30 03:50:09;;;;;;;11.68;1.40;;;6.50;99.90;;;;;;4973203;28;20395;-74
2023/12/30 03:52:35;;;;;;;7.47;1.83;;;6.50;99.90;;;;;;4975805;28;20034;-74
2023/12/30 03:55:01;;;;;;;8.57;1.17;;;6.50;99.90;;;;;;4977991;28;20050;-74
2023/12/30 03:57:26;;;;;;;7.60;1.83;;;6.50;99.90;;;;;;4977749;28;20043;-75
2023/12/30 03:59:52;;;;;;;8.75;1.30;;;6.50;99.90;;;;;;4976451;28;20053;-75
2023/12/30 04:02:20;;;;;;;13.48;2.38;;;6.50;99.90;;;;;;4976521;28;20053;-76
2023/12/30 04:04:47;;;;;;;9.57;1.23;;;6.50;99.90;;;;;;4976430;28;20082;-76
2023/12/30 04:07:12;;;;;;;7.30;1.20;;;6.50;99.90;;;;;;4977450;28;20510;-75
2023/12/30 04:09:38;;;;;;;9.05;1.45;;;6.50;99.90;;;;;;4977767;28;20041;-75
2023/12/30 04:12:04;;;;;;;10.10;1.70;;;6.50;99.90;;;;;;4976100;28;20043;-75
2023/12/30 04:14:30;;;;;;;9.57;1.30;;;6.50;99.90;;;;;;4976277;28;20055;-73
2023/12/30 04:16:55;;;;;;;8.20;1.60;;;6.40;99.90;;;;;;4976221;28;20459;-74
2023/12/30 04:19:21;;;;;;;8.57;1.38;;;6.40;99.90;;;;;;4976416;28;20073;-75
2023/12/30 04:21:46;;;;;;;12.70;2.17;;;6.40;99.90;;;;;;4977512;28;20043;-75
2023/12/30 04:24:12;;;;;;;11.48;1.38;;;6.40;99.90;;;;;;4977300;28;20057;-75
2023/12/30 04:26:38;;;;;;;13.02;2.03;;;6.40;99.90;;;;;;4975986;28;20071;-73
2023/12/30 04:29:03;;;;;;;7.80;1.02;;;6.30;99.90;;;;;;4975778;28;20047;-74
2023/12/30 04:31:29;;;;;;;17.83;1.42;;;6.30;99.90;;;;;;4977208;28;20134;-74
2023/12/30 04:33:55;;;;;;;9.63;1.73;;;6.40;99.90;;;;;;4977018;28;20102;-75
2023/12/30 04:36:20;;;;;;;10.50;2.30;;;6.30;99.90;;;;;;4977603;28;20070;-75
2023/12/30 04:38:46;;;;;;;6.53;1.52;;;6.30;99.90;;;;;;4960031;28;20054;-75
2023/12/30 04:41:11;;;;;;;11.68;1.60;;;6.30;99.90;;;;;;4976147;28;20070;-76
2023/12/30 04:43:37;;;;;;;7.70;1.80;;;6.30;99.90;;;;;;4975643;28;20130;-76
2023/12/30 04:46:03;;;;;;;16.45;1.50;;;6.30;99.90;;;;;;4977156;28;20074;-75
2023/12/30 04:48:28;;;;;;;10.52;1.63;;;6.20;99.90;;;;;;4975495;28;20043;-75
2023/12/30 04:50:54;;;;;;;13.27;1.30;;;6.20;99.90;;;;;;4976666;28;20450;-74
2023/12/30 04:53:20;;;;;;;29.05;1.83;;;6.20;99.90;;;;;;4975365;28;20053;-75
2023/12/30 04:55:45;;;;;;;11.32;1.60;;;6.20;99.90;;;;;;4975535;28;20051;-74
2023/12/30 04:58:11;;;;;;;10.93;2.30;;;6.20;99.90;;;;;;4977017;28;20125;-75
2023/12/30 05:00:38;;;;;;;12.15;1.70;;;6.20;99.90;;;;;;4975490;28;20513;-74
2023/12/30 05:03:03;;;;;;;12.45;2.20;;;6.20;99.90;;;;;;4975763;28;20109;-75
2023/12/30 05:05:29;;;;;;;11.18;1.50;;;6.20;99.90;;;;;;4976656;28;20035;-76
2023/12/30 05:07:55;;;;;;;10.60;1.70;;;6.20;99.90;;;;;;4975128;28;20058;-75
2023/12/30 05:10:20;;;;;;;12.13;1.88;;;6.20;99.90;;;;;;4975203;28;20410;-75
2023/12/30 05:12:46;;;;;;;10.90;1.55;;;6.20;99.90;;;;;;4975121;28;20047;-75
2023/12/30 05:15:14;;;;;;;10.38;1.98;;;6.20;99.90;;;;;;4976455;28;20470;-75
2023/12/30 05:17:40;;;;;;;11.65;1.45;;;6.20;99.90;;;;;;4976249;28;20039;-74
2023/12/30 05:20:08;;;;;;;15.52;2.10;;;6.20;99.90;;;;;;4975054;28;20050;-74
2023/12/30 05:22:36;;;;;;;7.97;2.03;;;6.10;99.90;;;;;;4974725;28;20054;-75
2023/12/30 05:25:02;;;;;;;8.30;1.13;;;6.20;99.90;;;;;;4975267;28;20474;-75
2023/12/30 05:27:28;;;;;;;15.75;2.92;;;6.20;99.90;;;;;;4976364;28;20058;-76
2023/12/30 05:29:53;;;;;;;9.25;1.63;;;6.20;99.90;;;;;;4974927;28;20609;-75
2023/12/30 05:32:19;;;;;;;9.90;2.17;;;6.20;99.90;;;;;;4976049;28;20138;-74
2023/12/30 05:34:45;;;;;;;12.70;1.77;;;6.20;99.90;;;;;;4974761;28;20042;-75
2023/12/30 05:37:10;;;;;;;5.88;1.67;;;6.20;99.90;;;;;;4974674;28;20174;-74
2023/12/30 05:39:36;;;;;;;18.10;2.50;;;6.30;99.90;;;;;;4974923;28;20439;-75
2023/12/30 05:42:02;;;;;;;11.18;1.35;;;6.30;99.90;;;;;;4974614;28;20054;-76
2023/12/30 05:44:28;;;;;;;11.30;1.75;;;6.30;99.90;;;;;;4974608;28;20047;-75
2023/12/30 05:46:54;;;;;;;8.88;1.45;;;6.30;99.90;;;;;;4976074;28;20368;-75
2023/12/30 05:49:19;;;;;;;9.68;1.30;;;6.40;99.90;;;;;;4975620;28;20039;-75
2023/12/30 05:51:45;;;;;;;10.07;1.92;;;6.40;99.90;;;;;;4974238;28;20041;-75
2023/12/30 05:54:10;;;;;;;12.32;1.92;;;6.40;99.90;;;;;;4974378;28;20085;-75
2023/12/30 05:56:37;;;;;;;11.25;1.35;;;6.40;99.90;;;;;;4974553;28;20118;-74
2023/12/30 05:59:02;;;;;;;12.27;1.60;;;6.50;99.90;;;;;;4974147;28;20043;-76
2023/12/30 06:01:28;;;;;;;16.98;1.88;;;6.50;99.90;;;;;;4975362;28;20050;-76
2023/12/30 06:03:54;;;;;;;9.23;2.70;;;6.50;99.90;;;;;;4974148;28;20078;-74
2023/12/30 06:06:20;;;;;;;8.90;1.50;;;6.50;99.90;;;;;;4974268;28;20088;-75
2023/12/30 06:08:46;;;;;;;8.88;1.70;;;6.40;99.90;;;;;;4974036;28;20559;-74
2023/12/30 06:11:13;;;;;;;13.80;2.25;;;6.50;99.90;;;;;;4974235;28;20506;-75
2023/12/30 06:13:42;;;;;;;13.75;2.22;;;6.40;99.90;;;;;;4973996;28;20081;-75
2023/12/30 06:16:10;;;;;;;12.55;1.50;;;6.40;99.90;;;;;;4974401;28;20542;-75
2023/12/30 06:18:37;;;;;;;12.88;1.90;;;6.40;99.90;;;;;;4975496;28;20098;-76
2023/12/30 06:21:04;;;;;;;10.88;1.55;;;6.40;99.90;;;;;;4973797;28;20615;-75
2023/12/30 06:23:32;;;;;;;14.98;1.80;;;6.50;99.90;;;;;;4975120;28;20550;-75
2023/12/30 06:25:58;;;;;;;10.40;1.50;;;6.50;99.90;;;;;;4974038;28;20049;-76
2023/12/30 06:28:26;;;;;;;10.82;1.77;;;6.50;99.90;;;;;;4974909;28;20498;-75
2023/12/30 06:30:52;;;;;;;11.77;1.50;;;6.50;99.90;;;;;;4975213;28;20046;-74
2023/12/30 06:33:18;;;;;;;10.77;1.40;;;6.50;99.90;;;;;;4973609;28;20050;-74
2023/12/30 06:35:43;;;;;;;17.73;2.33;;;6.50;99.90;;;;;;4975019;28;20038;-75
2023/12/30 06:38:09;;;;;;;14.70;2.58;;;6.50;99.90;;;;;;4975341;28;20083;-76
2023/12/30 06:40:34;;;;;;;11.07;1.85;;;6.50;99.90;;;;;;4975422;28;20525;-74
2023/12/30 06:43:00;;;;;;;11.35;2.00;;;6.50;99.90;;;;;;4973381;28;20462;-77
2023/12/30 06:45:26;;;;;;;12.10;2.13;;;6.50;99.90;;;;;;4975027;28;20089;-74
2023/12/30 06:47:51;;;;;;;13.75;1.73;;;6.50;99.90;;;;;;4974693;28;20042;-74
2023/12/30 06:50:19;;;;;;;18.15;2.25;;;6.50;99.90;;;;;;4973636;28;20395;-77
2023/12/30 06:52:45;;;;;;;15.70;2.15;;;6.50;99.90;;;;;;4973231;28;20128;-75
2023/12/30 06:55:13;;;;;;;12.63;1.70;;;6.50;99.90;;;;;;4973454;28;20047;-75
2023/12/30 06:57:40;;;;;;;10.48;2.00;;;6.50;99.90;;;;;;4974889;28;20394;-76
2023/12/30 07:00:07;;;;;;;14.13;2.58;;;6.50;99.90;;;;;;4974497;28;20046;-75
2023/12/30 07:02:33;;;;;;;11.15;1.58;;;6.40;99.90;;;;;;4973568;28;20054;-75
2023/12/30 07:04:59;;;;;;;12.18;1.60;;;6.30;99.90;;;;;;4973573;28;20133;-75
2023/12/30 07:07:25;;;;;;;11.95;2.40;;;6.30;99.90;;;;;;4973492;28;20462;-76
2023/12/30 07:09:50;;;;;;;13.55;2.00;;;6.30;99.90;;;;;;4973366;28;20440;-75
2023/12/30 07:12:16;;;;;;;10.25;1.77;;;6.20;99.90;;;;;;4974565;28;20031;-75
2023/12/30 07:14:42;;;;;;;18.27;2.00;;;6.20;99.90;;;;;;4974391;28;20047;-75
2023/12/30 07:17:08;;;;;;;11.07;2.45;;;6.10;99.90;;;;;;4973222;28;20043;-74
2023/12/30 07:19:34;;;;;;;14.00;3.05;;;6.10;99.90;;;;;;4973139;28;20101;-74
2023/12/30 07:22:03;;;;;;;14.30;2.13;;;6.00;99.90;;;;;;4981270;23;20074;-75
2023/12/30 07:24:29;;;;;;;12.18;1.90;;;6.00;99.90;;;;;;4974604;28;20122;-75
2023/12/30 07:26:55;;;;;;;9.98;1.75;;;6.00;99.90;;;;;;4976976;28;20045;-74
2023/12/30 07:29:20;;;;;;;15.18;2.33;;;6.00;99.90;;;;;;4978209;28;20374;-74
2023/12/30 07:31:46;;;;;;;16.50;2.33;;;5.90;99.90;;;;;;4978537;28;20070;-75
2023/12/30 07:34:12;;;;;;;13.60;1.70;;;5.90;99.90;;;;;;4978463;28;20039;-75
2023/12/30 07:36:37;;;;;;;16.15;1.75;;;5.90;99.90;;;;;;4976991;28;20039;-73
2023/12/30 07:39:03;;;;;;;11.27;1.60;;;5.90;99.90;;;;;;4976907;28;20520;-75
2023/12/30 07:41:28;;;;;;;6.18;1.38;;;5.90;99.90;;;;;;4976692;28;20043;-75
2023/12/30 07:43:54;;;;;;;7.85;1.02;;;5.90;99.90;;;;;;4978124;28;20045;-73
2023/12/30 07:46:21;;;;;;;10.02;1.60;;;5.90;99.90;;;;;;4978581;28;20385;-75
2023/12/30 07:48:46;;;;;;;11.88;1.67;;;5.90;99.90;;;;;;4976731;28;20051;-76
2023/12/30 07:51:12;;;;;;;13.65;2.45;;;5.80;99.90;;;;;;4976765;28;20042;-75
2023/12/30 07:53:38;;;;;;;10.93;1.73;;;5.80;99.90;;;;;;4976714;28;20038;-74
2023/12/30 07:56:04;;;;;;;9.00;1.52;;;5.80;99.90;;;;;;4977609;28;20117;-74
2023/12/30 07:58:29;;;;;;;13.13;1.50;;;5.80;99.90;;;;;;4978072;28;20047;-75
2023/12/30 08:00:55;;;;;;;14.82;1.75;;;5.80;99.90;;;;;;4977638;28;20117;-75
2023/12/30 08:03:21;;;;;;;10.80;1.10;;;5.80;99.90;;;;;;4976600;28;20047;-75
2023/12/30 08:05:46;;;;;;;12.73;1.63;;;5.80;99.90;;;;;;4977949;28;20423;-75
2023/12/30 08:08:13;;;;;;;12.55;1.52;;;5.80;99.90;;;;;;4993147;28;20101;-74
2023/12/30 08:10:39;;;;;;;7.55;1.33;;;5.80;99.90;;;;;;4995905;28;20117;-75
2023/12/30 08:13:05;;;;;;;15.05;2.25;;;5.90;99.90;;;;;;4995792;28;20125;-75
2023/12/30 08:15:30;;;;;;;11.38;1.55;;;5.90;99.90;;;;;;4997262;28;20113;-75
2023/12/30 08:17:56;;;;;;;15.30;2.47;;;5.90;99.90;;;;;;4995639;28;20483;-75
2023/12/30 08:20:21;;;;;;;13.55;2.65;;;5.90;99.90;;;;;;4997197;28;20041;-75
2023/12/30 08:22:50;;;;;;;11.02;2.38;;;5.90;99.90;;;;;;4995517;28;20041;-75
2023/12/30 08:25:15;;;;;;;13.35;2.20;;;5.90;99.90;;;;;;4997337;28;20366;-75
2023/12/30 08:27:41;;;;;;;10.48;2.17;;;5.90;99.90;;;;;;4995703;28;20050;-75
2023/12/30 08:30:07;;;;;;;10.57;2.05;;;6.00;99.90;;;;;;4997058;28;20416;-75
2023/12/30 08:32:33;;;;;;;19.75;3.05;;;6.00;99.90;;;;;;4997251;28;20045;-75
2023/12/30 08:35:02;;;;;;;12.77;1.95;;;6.00;99.90;;;;;;4995833;28;20042;-75
2023/12/30 08:37:27;;;;;;;11.15;1.42;;;6.00;99.90;;;;;;4994376;28;20038;-74
2023/12/30 08:39:53;;;;;;;10.00;1.40;;;6.00;99.90;;;;;;4995344;28;20039;-74
2023/12/30 08:42:19;;;;;;;5.35;1.20;;;6.10;99.90;;;;;;4995934;28;20046;-74
2023/12/30 08:44:45;;;;;;;8.98;1.40;;;6.10;99.90;;;;;;4995422;28;20090;-75
2023/12/30 08:47:11;;;;;;;10.02;1.85;;;6.10;99.90;;;;;;4995198;28;20490;-75
2023/12/30 08:49:37;;;;;;;9.32;1.70;;;6.20;99.90;;;;;;4978781;28;20126;-74
2023/12/30 08:52:06;;;;;;;9.93;1.90;;;6.30;99.90;;;;;;4996384;28;20030;-75
2023/12/30 08:54:32;;;;;;;10.45;1.50;;;6.30;99.90;;;;;;4996987;28;20078;-76
2023/12/30 08:56:57;;;;;;;13.88;2.10;;;6.40;99.90;;;;;;4996556;28;20062;-74
2023/12/30 08:59:24;;;;;;;14.02;2.38;;;6.50;99.90;;;;;;4996723;28;20482;-74
2023/12/30 09:01:51;;;;;;;9.75;1.63;;;6.50;99.90;;;;;;4996473;28;20034;-75
2023/12/30 09:04:17;;;;;;;12.88;2.42;;;6.60;99.90;;;;;;4995320;28;20071;-74
2023/12/30 09:06:42;;;;;;;13.05;2.35;;;6.60;99.90;;;;;;4996677;28;20166;-74
2023/12/30 09:09:08;;;;;;;13.68;2.10;;;6.50;99.90;;;;;;4994811;28;20043;-75
2023/12/30 09:11:37;;;;;;;14.52;2.25;;;6.50;99.90;;;;;;4978302;28;20034;-75
2023/12/30 09:14:07;;;;;;;14.48;2.00;;;6.50;99.90;;;;;;4996253;28;20482;-75
2023/12/30 09:16:33;;;;;;;8.82;1.80;;;6.50;99.90;;;;;;4994635;28;20503;-75
2023/12/30 09:18:58;;;;;;;10.15;1.55;;;6.50;99.90;;;;;;4995708;28;20073;-76
2023/12/30 09:21:24;;;;;;;10.75;1.80;;;6.60;99.90;;;;;;4994277;28;20526;-76
2023/12/30 09:23:50;;;;;;;10.95;2.05;;;6.50;99.90;;;;;;4995586;28;20074;-75
2023/12/30 09:26:16;;;;;;;9.68;1.80;;;6.60;99.90;;;;;;4994570;28;20441;-76
2023/12/30 09:28:45;;;;;;;11.27;2.10;;;6.60;99.90;;;;;;4994041;28;20050;-76
2023/12/30 09:31:11;;;;;;;18.52;3.15;;;6.60;99.90;;;;;;4994375;28;21115;-74
2023/12/30 09:33:37;;;;;;;16.58;2.10;;;6.60;99.90;;;;;;4971582;28;20106;-75
2023/12/30 09:36:04;;;;;;;17.92;2.85;;;6.60;99.90;;;;;;4940062;29;20039;-74
2023/12/30 09:38:30;;;;;;;16.50;2.10;;;6.60;99.90;;;;;;4956769;28;20050;-75
2023/12/30 09:40:56;;;;;;;13.27;2.50;;;6.60;99.90;;;;;;4956545;29;20039;-75
2023/12/30 09:43:27;;;;;;;11.15;1.85;;;6.60;99.90;;;;;;4955894;28;20464;-76
2023/12/30 09:45:54;;;;;;;9.95;2.13;;;6.70;99.90;;;;;;4956965;29;20051;-76
2023/12/30 09:48:24;;;;;;;13.27;2.08;;;6.70;99.90;;;;;;4956366;28;20051;-76
2023/12/30 09:50:51;;;;;;;12.98;2.35;;;6.80;99.90;;;;;;4954447;29;20042;-76
2023/12/30 09:53:17;;;;;;;14.27;2.13;;;6.80;99.90;;;;;;4954298;29;20118;-75
2023/12/30 09:55:46;;;;;;;7.05;1.50;;;6.80;99.90;;;;;;4955546;28;20620;-76
2023/12/30 09:58:17;;;;;;;13.18;2.33;;;7.00;99.90;;;;;;4955757;29;20046;-76
2023/12/30 10:00:43;;;;;;;10.88;2.58;;;7.00;99.90;;;;;;4955837;28;20051;-76
2023/12/30 10:03:13;;;;;;;17.98;4.30;;;7.00;99.90;;;;;;4954301;29;20051;-76
2023/12/30 10:05:38;;;;;;;13.20;3.83;;;7.10;99.90;;;;;;4956371;28;20094;-78
2023/12/30 10:08:04;;;;;;;11.70;3.75;;;7.20;99.90;;;;;;4956483;28;20511;-76
2023/12/30 10:10:46;;;;;;;13.55;2.17;;;7.20;99.90;;;;;;4956732;28;20482;-76
2023/12/30 10:13:13;;;;;;;11.15;1.83;;;7.30;99.90;;;;;;4956263;28;20047;-76
2023/12/30 10:15:40;;;;;;;12.60;3.00;;;7.30;99.90;;;;;;4954891;29;20043;-75
2023/12/30 10:18:07;;;;;;;15.90;2.95;;;7.30;99.90;;;;;;4954819;28;20047;-76
2023/12/30 10:20:44;;;;;;;13.30;2.38;;;7.20;99.90;;;;;;4954634;28;20047;-77
2023/12/30 10:23:09;;;;;;;13.13;2.65;;;7.20;99.90;;;;;;4954521;29;20062;-77
2023/12/30 10:25:35;;;;;;;13.82;2.25;;;7.20;99.90;;;;;;4956193;28;20035;-76
2023/12/30 10:28:02;;;;;;;9.82;1.80;;;7.20;99.90;;;;;;4956234;28;20127;-76
2023/12/30 10:30:30;;;;;;;8.60;1.70;;;7.20;99.90;;;;;;4955974;28;20483;-77
2023/12/30 10:33:07;;;;;;;17.90;2.20;;;7.20;99.90;;;;;;4954843;28;20130;-77
2023/12/30 10:35:33;;;;;;;9.57;1.67;;;7.20;99.90;;;;;;4956081;28;20043;-76
2023/12/30 10:38:03;;;;;;;8.27;1.83;;;7.20;99.90;;;;;;4955783;28;20039;-76
2023/12/30 10:40:30;;;;;;;9.85;2.03;;;7.30;99.90;;;;;;4955588;28;20039;-76
2023/12/30 10:42:55;;;;;;;12.05;1.80;;;7.30;99.90;;;;;;4956011;28;20368;-76
2023/12/30 10:45:21;;;;;;;12.77;1.75;;;7.30;99.90;;;;;;4956113;28;20155;-77
2023/12/30 10:47:49;;;;;;;11.45;1.95;;;7.40;99.90;;;;;;4954005;29;20055;-75
2023/12/30 10:50:15;;;;;;;11.32;2.25;;;7.40;99.90;;;;;;4955293;28;20046;-76
2023/12/30 10:52:48;;;;;;;12.52;2.45;;;7.40;99.90;;;;;;4954217;29;20031;-76
2023/12/30 10:55:16;;;;;;;8.93;1.42;;;7.40;99.90;;;;;;4954136;29;20039;-76
2023/12/30 10:57:50;;;;;;;9.15;1.80;;;7.30;99.90;;;;;;4954248;29;20458;-75
2023/12/30 11:00:20;;;;;;;9.80;1.75;;;7.30;99.90;;;;;;4955410;28;20045;-78
2023/12/30 11:02:47;;;;;;;9.07;2.03;;;7.30;99.90;;;;;;4955350;29;20417;-77
2023/12/30 11:05:23;;;;;;;12.50;2.08;;;7.30;99.90;;;;;;4955493;28;20071;-77
2023/12/30 11:07:49;;;;;;;16.13;2.95;;;7.40;99.90;;;;;;4953931;29;20049;-78
2023/12/30 11:10:20;;;;;;;20.67;3.38;;;7.50;99.90;;;;;;4953899;29;20087;-78
2023/12/30 11:12:46;;;;;;;12.20;2.38;;;7.50;99.90;;;;;;4955170;29;20043;-77
2023/12/30 11:15:30;;;;;;;17.35;3.13;;;7.60;99.90;;;;;;4953722;29;20123;-75
2023/12/30 11:17:58;;;;;;;9.23;1.77;;;7.70;99.90;;;;;;4954054;28;20098;-76
2023/12/30 11:20:32;;;;;;;12.27;1.92;;;7.70;99.90;;;;;;4954034;28;20126;-78
2023/12/30 11:23:00;;;;;;;15.88;3.22;;;7.90;99.90;;;;;;4954855;28;20111;-76
2023/12/30 11:25:52;;;;;;;8.15;1.80;;;8.00;99.90;;;;;;4954900;28;20484;-76
2023/12/30 11:28:22;;;;;;;19.98;2.67;;;8.10;99.90;;;;;;4950951;29;20055;-76
2023/12/30 11:31:00;;;;;;;12.95;2.08;;;8.20;99.90;;;;;;4955261;28;20042;-77
2023/12/30 11:33:27;;;;;;;15.07;2.30;;;8.30;99.90;;;;;;4953733;28;20550;-76
2023/12/30 11:35:56;;;;;;;12.98;2.90;;;8.30;99.90;;;;;;4937814;29;20035;-77
2023/12/30 11:38:24;;;;;;;22.40;4.03;;;8.30;99.90;;;;;;4955298;28;20039;-78
2023/12/30 11:40:52;;;;;;;16.55;3.95;;;8.40;99.90;;;;;;4953848;28;20047;-78
2023/12/30 11:43:21;;;;;;;12.27;3.92;;;8.40;99.90;;;;;;4953836;28;20067;-77
2023/12/30 11:45:47;;;;;;;16.63;3.50;;;8.40;99.90;;;;;;4953462;28;20078;-76
2023/12/30 11:48:14;;;;;;;16.23;3.42;;;8.30;99.90;;;;;;4954848;29;20039;-76
2023/12/30 11:50:41;;;;;;;10.23;2.00;;;8.30;99.90;;;;;;4953325;29;20039;-76
2023/12/30 11:53:07;;;;;;;13.75;2.03;;;8.30;99.90;;;;;;4953424;28;20044;-78
2023/12/30 11:55:33;;;;;;;13.23;2.80;;;8.40;99.90;;;;;;4954901;28;20171;-77
2023/12/30 11:57:59;;;;;;;12.70;2.17;;;8.50;99.90;;;;;;4953600;28;20515;-77
2023/12/30 12:00:26;;;;;;;11.30;2.72;;;8.60;99.90;;;;;;4954957;28;20579;-76
2023/12/30 12:02:52;;;;;;;12.88;2.55;;;8.60;99.90;;;;;;4953552;28;20368;-78
2023/12/30 12:05:18;;;;;;;10.65;2.20;;;8.50;99.90;;;;;;4953283;29;20043;-77
2023/12/30 12:07:44;;;;;;;15.70;2.75;;;8.50;99.90;;;;;;4954578;28;20039;-76
2023/12/30 12:10:11;;;;;;;12.80;3.90;;;8.40;99.90;;;;;;4953337;29;20502;-77
2023/12/30 12:12:38;;;;;;;10.27;2.10;;;8.40;99.90;;;;;;4953455;28;20039;-76
2023/12/30 12:15:06;;;;;;;10.40;1.92;;;8.40;99.90;;;;;;4957084;28;20042;-77
2023/12/30 12:17:32;;;;;;;12.48;2.30;;;8.40;99.90;;;;;;4956732;29;20047;-77
2023/12/30 12:19:58;;;;;;;9.35;1.80;;;8.40;99.90;;;;;;4956968;29;20043;-76
2023/12/30 12:22:24;;;;;;;12.20;2.85;;;8.40;99.90;;;;;;4957672;28;20105;-79
2023/12/30 12:24:50;;;;;;;11.75;2.30;;;8.50;99.90;;;;;;4958165;28;20066;-77
2023/12/30 12:27:23;;;;;;;8.88;1.80;;;8.50;99.90;;;;;;4957834;28;20051;-77
2023/12/30 12:29:50;;;;;;;17.27;2.45;;;8.60;99.90;;;;;;4956485;28;20087;-75
2023/12/30 12:32:21;;;;;;;12.23;2.40;;;8.60;99.90;;;;;;4956602;29;20045;-77
2023/12/30 12:34:47;;;;;;;12.38;2.45;;;8.60;99.90;;;;;;4957777;29;20114;-77
2023/12/30 12:37:15;;;;;;;12.38;1.92;;;8.50;99.90;;;;;;4957937;28;20043;-77
2023/12/30 12:39:44;;;;;;;8.00;2.20;;;8.50;99.90;;;;;;4956647;29;20078;-76
2023/12/30 12:42:11;;;;;;;9.20;1.75;;;8.50;99.90;;;;;;4956264;28;20518;-76
2023/12/30 12:44:38;;;;;;;12.98;1.95;;;8.40;99.90;;;;;;4956281;28;20047;-77
2023/12/30 12:47:05;;;;;;;13.70;2.47;;;8.40;99.90;;;;;;4957812;29;20047;-76
2023/12/30 12:49:30;;;;;;;10.38;2.00;;;8.40;99.90;;;;;;4957701;28;20518;-77
2023/12/30 12:51:56;;;;;;;13.95;2.92;;;8.40;99.90;;;;;;4956343;28;20195;-78
2023/12/30 12:54:21;;;;;;;10.35;2.60;;;8.40;99.90;;;;;;4956147;29;20122;-76
2023/12/30 12:56:47;;;;;;;13.02;2.67;;;8.40;99.90;;;;;;4957649;28;20242;-78
2023/12/30 12:59:13;;;;;;;8.95;1.90;;;8.40;99.90;;;;;;4957497;28;20492;-77
2023/12/30 13:01:38;;;;;;;16.05;1.63;;;8.40;99.90;;;;;;4957168;29;20050;-76
2023/12/30 13:04:05;;;;;;;17.92;2.63;;;8.40;99.90;;;;;;4956367;29;20126;-76
2023/12/30 13:06:30;;;;;;;16.02;2.15;;;8.40;99.90;;;;;;4956249;29;20043;-77
2023/12/30 13:08:56;;;;;;;13.48;2.50;;;8.40;99.90;;;;;;4955841;28;20046;-77